Aviation Digital Data Service (ADDS)

Output produced by METARs form (1352 UTC 13 December 2019)
found at http://www.aviationweather.gov/metar/data/
 
METAR text: VABB 131330Z 27007KT 4000 FU NSC 27/20 Q1013 NOSIG
Conditions at: VABB (BOMBAY/SANTACRUZ, IN) observed 1330 UTC 13 December 2019
Temperature: 27.0°C (81°F)
Dewpoint: 20.0°C (68°F) [RH = 66%]
Pressure (altimeter): 29.91 inches Hg (1013.0 mb)
Winds: from the W (270 degrees) at 8 MPH (7 knots; 3.6 m/s)
Visibility: 2.49 miles (4.01 km)
Ceiling: at least 12,000 feet AGL
Clouds: sky clear below 12,000 feet AGL
Weather: FU  (smoke)

METAR text: VABB 131300Z 35007KT 4000 FU NSC 27/20 Q1012 NOSIG
Conditions at: VABB (BOMBAY/SANTACRUZ, IN) observed 1300 UTC 13 December 2019
Temperature: 27.0°C (81°F)
Dewpoint: 20.0°C (68°F) [RH = 66%]
Pressure (altimeter): 29.88 inches Hg (1012.0 mb)
Winds: from the N (350 degrees) at 8 MPH (7 knots; 3.6 m/s)
Visibility: 2.49 miles (4.01 km)
Ceiling: at least 12,000 feet AGL
Clouds: sky clear below 12,000 feet AGL
Weather: FU  (smoke)

METAR text: VABB 131230Z 34007KT 4000 FU NSC 27/19 Q1012 NOSIG
Conditions at: VABB (BOMBAY/SANTACRUZ, IN) observed 1230 UTC 13 December 2019
Temperature: 27.0°C (81°F)
Dewpoint: 19.0°C (66°F) [RH = 62%]
Pressure (altimeter): 29.88 inches Hg (1012.0 mb)
Winds: from the NNW (340 degrees) at 8 MPH (7 knots; 3.6 m/s)
Visibility: 2.49 miles (4.01 km)
Ceiling: at least 12,000 feet AGL
Clouds: sky clear below 12,000 feet AGL
Weather: FU  (smoke)

METAR text: VABB 131200Z 31008KT 4000 FU NSC 27/19 Q1012 NOSIG
Conditions at: VABB (BOMBAY/SANTACRUZ, IN) observed 1200 UTC 13 December 2019
Temperature: 27.0°C (81°F)
Dewpoint: 19.0°C (66°F) [RH = 62%]
Pressure (altimeter): 29.88 inches Hg (1012.0 mb)
Winds: from the NW (310 degrees) at 9 MPH (8 knots; 4.1 m/s)
Visibility: 2.49 miles (4.01 km)
Ceiling: at least 12,000 feet AGL
Clouds: sky clear below 12,000 feet AGL
Weather: FU  (smoke)

METAR text: VABB 131130Z 32010KT 4000 FU NSC 27/19 Q1012 NOSIG
Conditions at: VABB (BOMBAY/SANTACRUZ, IN) observed 1130 UTC 13 December 2019
Temperature: 27.0°C (81°F)
Dewpoint: 19.0°C (66°F) [RH = 62%]
Pressure (altimeter): 29.88 inches Hg (1012.0 mb)
Winds: from the NW (320 degrees) at 12 MPH (10 knots; 5.1 m/s)
Visibility: 2.49 miles (4.01 km)
Ceiling: at least 12,000 feet AGL
Clouds: sky clear below 12,000 feet AGL
Weather: FU  (smoke)

METAR text: VABB 131100Z 32010KT 4000 FU FEW025 27/19 Q1012 NOSIG
Conditions at: VABB (BOMBAY/SANTACRUZ, IN) observed 1100 UTC 13 December 2019
Temperature: 27.0°C (81°F)
Dewpoint: 19.0°C (66°F) [RH = 62%]
Pressure (altimeter): 29.88 inches Hg (1012.0 mb)
Winds: from the NW (320 degrees) at 12 MPH (10 knots; 5.1 m/s)
Visibility: 2.49 miles (4.01 km)
Ceiling: at least 12,000 feet AGL
Clouds: few clouds at 2500 feet AGL
Weather: FU  (smoke)

METAR text: VABB 131030Z 31012KT 4000 FU FEW020 SCT025 28/19 Q1012 NOSIG
Conditions at: VABB (BOMBAY/SANTACRUZ, IN) observed 1030 UTC 13 December 2019
Temperature: 28.0°C (82°F)
Dewpoint: 19.0°C (66°F) [RH = 58%]
Pressure (altimeter): 29.88 inches Hg (1012.0 mb)
Winds: from the NW (310 degrees) at 14 MPH (12 knots; 6.2 m/s)
Visibility: 2.49 miles (4.01 km)
Ceiling: at least 12,000 feet AGL
Clouds: few clouds at 2000 feet AGL
scattered clouds at 2500 feet AGL
Weather: FU  (smoke)

METAR text: VABB 131000Z 32009KT 4000 FU FEW020 SCT025 28/20 Q1011 NOSIG
Conditions at: VABB (BOMBAY/SANTACRUZ, IN) observed 1000 UTC 13 December 2019
Temperature: 28.0°C (82°F)
Dewpoint: 20.0°C (68°F) [RH = 62%]
Pressure (altimeter): 29.85 inches Hg (1011.0 mb)
Winds: from the NW (320 degrees) at 10 MPH (9 knots; 4.6 m/s)
Visibility: 2.49 miles (4.01 km)
Ceiling: at least 12,000 feet AGL
Clouds: few clouds at 2000 feet AGL
scattered clouds at 2500 feet AGL
Weather: FU  (smoke)

METAR text: VABB 130930Z 29009KT 4000 FU FEW020 SCT025 28/19 Q1011 NOSIG
Conditions at: VABB (BOMBAY/SANTACRUZ, IN) observed 0930 UTC 13 December 2019
Temperature: 28.0°C (82°F)
Dewpoint: 19.0°C (66°F) [RH = 58%]
Pressure (altimeter): 29.85 inches Hg (1011.0 mb)
Winds: from the WNW (290 degrees) at 10 MPH (9 knots; 4.6 m/s)
Visibility: 2.49 miles (4.01 km)
Ceiling: at least 12,000 feet AGL
Clouds: few clouds at 2000 feet AGL
scattered clouds at 2500 feet AGL
Weather: FU  (smoke)

METAR text: VABB 130900Z 31009KT 4000 FU FEW020 SCT025 29/18 Q1012 NOSIG
Conditions at: VABB (BOMBAY/SANTACRUZ, IN) observed 0900 UTC 13 December 2019
Temperature: 29.0°C (84°F)
Dewpoint: 18.0°C (64°F) [RH = 52%]
Pressure (altimeter): 29.88 inches Hg (1012.0 mb)
Winds: from the NW (310 degrees) at 10 MPH (9 knots; 4.6 m/s)
Visibility: 2.49 miles (4.01 km)
Ceiling: at least 12,000 feet AGL
Clouds: few clouds at 2000 feet AGL
scattered clouds at 2500 feet AGL
Weather: FU  (smoke)

METAR text: VABB 130830Z 32007KT 4000 FU FEW020 SCT025 29/18 Q1012 NOSIG
Conditions at: VABB (BOMBAY/SANTACRUZ, IN) observed 0830 UTC 13 December 2019
Temperature: 29.0°C (84°F)
Dewpoint: 18.0°C (64°F) [RH = 52%]
Pressure (altimeter): 29.88 inches Hg (1012.0 mb)
Winds: from the NW (320 degrees) at 8 MPH (7 knots; 3.6 m/s)
Visibility: 2.49 miles (4.01 km)
Ceiling: at least 12,000 feet AGL
Clouds: few clouds at 2000 feet AGL
scattered clouds at 2500 feet AGL
Weather: FU  (smoke)

METAR text: VABB 130800Z 33007KT 4000 FU SCT020 29/19 Q1012 NOSIG
Conditions at: VABB (BOMBAY/SANTACRUZ, IN) observed 0800 UTC 13 December 2019
Temperature: 29.0°C (84°F)
Dewpoint: 19.0°C (66°F) [RH = 55%]
Pressure (altimeter): 29.88 inches Hg (1012.0 mb)
Winds: from the NNW (330 degrees) at 8 MPH (7 knots; 3.6 m/s)
Visibility: 2.49 miles (4.01 km)
Ceiling: at least 12,000 feet AGL
Clouds: scattered clouds at 2000 feet AGL
Weather: FU  (smoke)

METAR text: VABB 130730Z 33011KT 3500 FU SCT020 29/19 Q1013 BECMG 4000 FU
Conditions at: VABB (BOMBAY/SANTACRUZ, IN) observed 0730 UTC 13 December 2019
Temperature: 29.0°C (84°F)
Dewpoint: 19.0°C (66°F) [RH = 55%]
Pressure (altimeter): 29.91 inches Hg (1013.0 mb)
Winds: from the NNW (330 degrees) at 13 MPH (11 knots; 5.7 m/s)
Visibility: 2.17 miles (3.49 km)
Ceiling: at least 12,000 feet AGL
Clouds: scattered clouds at 2000 feet AGL
Weather: FU  (smoke)

METAR text: VABB 130700Z 34006KT 3500 FU SCT020 29/18 Q1013 BECMG 4000 FU
Conditions at: VABB (BOMBAY/SANTACRUZ, IN) observed 0700 UTC 13 December 2019
Temperature: 29.0°C (84°F)
Dewpoint: 18.0°C (64°F) [RH = 52%]
Pressure (altimeter): 29.91 inches Hg (1013.0 mb)
Winds: from the NNW (340 degrees) at 7 MPH (6 knots; 3.1 m/s)
Visibility: 2.17 miles (3.49 km)
Ceiling: at least 12,000 feet AGL
Clouds: scattered clouds at 2000 feet AGL
Weather: FU  (smoke)

METAR text: VABB 130630Z 32007KT 3500 FU SCT020 28/18 Q1014 NOSIG
Conditions at: VABB (BOMBAY/SANTACRUZ, IN) observed 0630 UTC 13 December 2019
Temperature: 28.0°C (82°F)
Dewpoint: 18.0°C (64°F) [RH = 55%]
Pressure (altimeter): 29.94 inches Hg (1014.0 mb)
Winds: from the NW (320 degrees) at 8 MPH (7 knots; 3.6 m/s)
Visibility: 2.17 miles (3.49 km)
Ceiling: at least 12,000 feet AGL
Clouds: scattered clouds at 2000 feet AGL
Weather: FU  (smoke)

METAR text: VABB 130600Z 04005KT 3000 FU FEW020 28/18 Q1014 NOSIG
Conditions at: VABB (BOMBAY/SANTACRUZ, IN) observed 0600 UTC 13 December 2019
Temperature: 28.0°C (82°F)
Dewpoint: 18.0°C (64°F) [RH = 55%]
Pressure (altimeter): 29.94 inches Hg (1014.0 mb)
Winds: from the NE (40 degrees) at 6 MPH (5 knots; 2.6 m/s)
Visibility: 1.86 miles (2.99 km)
Ceiling: at least 12,000 feet AGL
Clouds: few clouds at 2000 feet AGL
Weather: FU  (smoke)

METAR text: VABB 130530Z 33004KT 2500 FU FEW020 27/18 Q1014 BECMG 3000 FU
Conditions at: VABB (BOMBAY/SANTACRUZ, IN) observed 0530 UTC 13 December 2019
Temperature: 27.0°C (81°F)
Dewpoint: 18.0°C (64°F) [RH = 58%]
Pressure (altimeter): 29.94 inches Hg (1014.0 mb)
Winds: from the NNW (330 degrees) at 5 MPH (4 knots; 2.1 m/s)
Visibility: 1.55 miles (2.49 km)
Ceiling: at least 12,000 feet AGL
Clouds: few clouds at 2000 feet AGL
Weather: FU  (smoke)

METAR text: VABB 130500Z 35006KT 2500 FU FEW100 27/19 Q1014 NOSIG
Conditions at: VABB (BOMBAY/SANTACRUZ, IN) observed 0500 UTC 13 December 2019
Temperature: 27.0°C (81°F)
Dewpoint: 19.0°C (66°F) [RH = 62%]
Pressure (altimeter): 29.94 inches Hg (1014.0 mb)
Winds: from the N (350 degrees) at 7 MPH (6 knots; 3.1 m/s)
Visibility: 1.55 miles (2.49 km)
Ceiling: at least 12,000 feet AGL
Clouds: few clouds at 10000 feet AGL
Weather: FU  (smoke)

METAR text: VABB 130430Z 07004KT 2200 FU FEW100 27/18 Q1014 NOSIG
Conditions at: VABB (BOMBAY/SANTACRUZ, IN) observed 0430 UTC 13 December 2019
Temperature: 27.0°C (81°F)
Dewpoint: 18.0°C (64°F) [RH = 58%]
Pressure (altimeter): 29.94 inches Hg (1014.0 mb)
Winds: from the ENE (70 degrees) at 5 MPH (4 knots; 2.1 m/s)
Visibility: 1.37 miles (2.20 km)
Ceiling: at least 12,000 feet AGL
Clouds: few clouds at 10000 feet AGL
Weather: FU  (smoke)

METAR text: VABB 130400Z 08005KT 2100 FU FEW100 27/17 Q1014 NOSIG
Conditions at: VABB (BOMBAY/SANTACRUZ, IN) observed 0400 UTC 13 December 2019
Temperature: 27.0°C (81°F)
Dewpoint: 17.0°C (63°F) [RH = 54%]
Pressure (altimeter): 29.94 inches Hg (1014.0 mb)
Winds: from the E (80 degrees) at 6 MPH (5 knots; 2.6 m/s)
Visibility: 1.30 miles (2.09 km)
Ceiling: at least 12,000 feet AGL
Clouds: few clouds at 10000 feet AGL
Weather: FU  (smoke)

METAR text: VABB 130330Z 06005KT 2100 HZ FEW100 26/17 Q1014 NOSIG
Conditions at: VABB (BOMBAY/SANTACRUZ, IN) observed 0330 UTC 13 December 2019
Temperature: 26.0°C (79°F)
Dewpoint: 17.0°C (63°F) [RH = 58%]
Pressure (altimeter): 29.94 inches Hg (1014.0 mb)
Winds: from the ENE (60 degrees) at 6 MPH (5 knots; 2.6 m/s)
Visibility: 1.30 miles (2.09 km)
Ceiling: at least 12,000 feet AGL
Clouds: few clouds at 10000 feet AGL
Weather: HZ  (haze)

METAR text: VABB 130300Z 07007KT 1800 HZ FEW100 25/17 Q1013 NOSIG
Conditions at: VABB (BOMBAY/SANTACRUZ, IN) observed 0300 UTC 13 December 2019
Temperature: 25.0°C (77°F)
Dewpoint: 17.0°C (63°F) [RH = 61%]
Pressure (altimeter): 29.91 inches Hg (1013.0 mb)
Winds: from the ENE (70 degrees) at 8 MPH (7 knots; 3.6 m/s)
Visibility: 1.12 miles (1.80 km)
Ceiling: at least 12,000 feet AGL
Clouds: few clouds at 10000 feet AGL
Weather: HZ  (haze)

METAR text: VABB 130230Z 11005KT 1800 HZ FEW100 24/17 Q1013 NOSIG
Conditions at: VABB (BOMBAY/SANTACRUZ, IN) observed 0230 UTC 13 December 2019
Temperature: 24.0°C (75°F)
Dewpoint: 17.0°C (63°F) [RH = 65%]
Pressure (altimeter): 29.91 inches Hg (1013.0 mb)
Winds: from the ESE (110 degrees) at 6 MPH (5 knots; 2.6 m/s)
Visibility: 1.12 miles (1.80 km)
Ceiling: at least 12,000 feet AGL
Clouds: few clouds at 10000 feet AGL
Weather: HZ  (haze)

METAR text: VABB 130200Z 13003KT 1800 HZ SCT100 23/17 Q1012 NOSIG
Conditions at: VABB (BOMBAY/SANTACRUZ, IN) observed 0200 UTC 13 December 2019
Temperature: 23.0°C (73°F)
Dewpoint: 17.0°C (63°F) [RH = 69%]
Pressure (altimeter): 29.88 inches Hg (1012.0 mb)
Winds: from the SE (130 degrees) at 3 MPH (3 knots; 1.5 m/s)
Visibility: 1.12 miles (1.80 km)
Ceiling: at least 12,000 feet AGL
Clouds: scattered clouds at 10000 feet AGL
Weather: HZ  (haze)

METAR text: VABB 130130Z 14003KT 2200 HZ SCT100 23/18 Q1012 NOSIG
Conditions at: VABB (BOMBAY/SANTACRUZ, IN) observed 0130 UTC 13 December 2019
Temperature: 23.0°C (73°F)
Dewpoint: 18.0°C (64°F) [RH = 73%]
Pressure (altimeter): 29.88 inches Hg (1012.0 mb)
Winds: from the SE (140 degrees) at 3 MPH (3 knots; 1.5 m/s)
Visibility: 1.37 miles (2.20 km)
Ceiling: at least 12,000 feet AGL
Clouds: scattered clouds at 10000 feet AGL
Weather: HZ  (haze)

METAR text: VABB 130100Z 00000KT 2500 HZ FEW100 24/17 Q1012 NOSIG
Conditions at: VABB (BOMBAY/SANTACRUZ, IN) observed 0100 UTC 13 December 2019
Temperature: 24.0°C (75°F)
Dewpoint: 17.0°C (63°F) [RH = 65%]
Pressure (altimeter): 29.88 inches Hg (1012.0 mb)
Winds: calm
Visibility: 1.55 miles (2.49 km)
Ceiling: at least 12,000 feet AGL
Clouds: few clouds at 10000 feet AGL
Weather: HZ  (haze)

METAR text: VABB 130030Z 06005KT 2500 HZ FEW100 24/18 Q1012 NOSIG
Conditions at: VABB (BOMBAY/SANTACRUZ, IN) observed 0030 UTC 13 December 2019
Temperature: 24.0°C (75°F)
Dewpoint: 18.0°C (64°F) [RH = 69%]
Pressure (altimeter): 29.88 inches Hg (1012.0 mb)
Winds: from the ENE (60 degrees) at 6 MPH (5 knots; 2.6 m/s)
Visibility: 1.55 miles (2.49 km)
Ceiling: at least 12,000 feet AGL
Clouds: few clouds at 10000 feet AGL
Weather: HZ  (haze)

METAR text: VABB 130000Z 07004KT 2500 HZ FEW100 24/18 Q1011 NOSIG
Conditions at: VABB (BOMBAY/SANTACRUZ, IN) observed 0000 UTC 13 December 2019
Temperature: 24.0°C (75°F)
Dewpoint: 18.0°C (64°F) [RH = 69%]
Pressure (altimeter): 29.85 inches Hg (1011.0 mb)
Winds: from the ENE (70 degrees) at 5 MPH (4 knots; 2.1 m/s)
Visibility: 1.55 miles (2.49 km)
Ceiling: at least 12,000 feet AGL
Clouds: few clouds at 10000 feet AGL
Weather: HZ  (haze)

METAR text: VABB 122330Z 05006KT 2500 BR FEW100 24/19 Q1011 NOSIG
Conditions at: VABB (BOMBAY/SANTACRUZ, IN) observed 2330 UTC 12 December 2019
Temperature: 24.0°C (75°F)
Dewpoint: 19.0°C (66°F) [RH = 74%]
Pressure (altimeter): 29.85 inches Hg (1011.0 mb)
Winds: from the NE (50 degrees) at 7 MPH (6 knots; 3.1 m/s)
Visibility: 1.55 miles (2.49 km)
Ceiling: at least 12,000 feet AGL
Clouds: few clouds at 10000 feet AGL
Weather: BR  (mist)

METAR text: VABB 122300Z 06004KT 2500 BR FEW100 24/20 Q1011 NOSIG
Conditions at: VABB (BOMBAY/SANTACRUZ, IN) observed 2300 UTC 12 December 2019
Temperature: 24.0°C (75°F)
Dewpoint: 20.0°C (68°F) [RH = 78%]
Pressure (altimeter): 29.85 inches Hg (1011.0 mb)
Winds: from the ENE (60 degrees) at 5 MPH (4 knots; 2.1 m/s)
Visibility: 1.55 miles (2.49 km)
Ceiling: at least 12,000 feet AGL
Clouds: few clouds at 10000 feet AGL
Weather: BR  (mist)

METAR text: VABB 122230Z 05004KT 2500 BR FEW100 24/20 Q1011 NOSIG
Conditions at: VABB (BOMBAY/SANTACRUZ, IN) observed 2230 UTC 12 December 2019
Temperature: 24.0°C (75°F)
Dewpoint: 20.0°C (68°F) [RH = 78%]
Pressure (altimeter): 29.85 inches Hg (1011.0 mb)
Winds: from the NE (50 degrees) at 5 MPH (4 knots; 2.1 m/s)
Visibility: 1.55 miles (2.49 km)
Ceiling: at least 12,000 feet AGL
Clouds: few clouds at 10000 feet AGL
Weather: BR  (mist)

METAR text: VABB 122200Z 03005KT 2500 HZ FEW100 25/20 Q1011 NOSIG
Conditions at: VABB (BOMBAY/SANTACRUZ, IN) observed 2200 UTC 12 December 2019
Temperature: 25.0°C (77°F)
Dewpoint: 20.0°C (68°F) [RH = 74%]
Pressure (altimeter): 29.85 inches Hg (1011.0 mb)
Winds: from the NNE (30 degrees) at 6 MPH (5 knots; 2.6 m/s)
Visibility: 1.55 miles (2.49 km)
Ceiling: at least 12,000 feet AGL
Clouds: few clouds at 10000 feet AGL
Weather: HZ  (haze)

METAR text: VABB 122130Z 05003KT 2500 HZ FEW100 25/21 Q1011 NOSIG
Conditions at: VABB (BOMBAY/SANTACRUZ, IN) observed 2130 UTC 12 December 2019
Temperature: 25.0°C (77°F)
Dewpoint: 21.0°C (70°F) [RH = 79%]
Pressure (altimeter): 29.85 inches Hg (1011.0 mb)
Winds: from the NE (50 degrees) at 3 MPH (3 knots; 1.5 m/s)
Visibility: 1.55 miles (2.49 km)
Ceiling: at least 12,000 feet AGL
Clouds: few clouds at 10000 feet AGL
Weather: HZ  (haze)

METAR text: VABB 122100Z 07004KT 2500 HZ FEW100 26/20 Q1011 NOSIG
Conditions at: VABB (BOMBAY/SANTACRUZ, IN) observed 2100 UTC 12 December 2019
Temperature: 26.0°C (79°F)
Dewpoint: 20.0°C (68°F) [RH = 70%]
Pressure (altimeter): 29.85 inches Hg (1011.0 mb)
Winds: from the ENE (70 degrees) at 5 MPH (4 knots; 2.1 m/s)
Visibility: 1.55 miles (2.49 km)
Ceiling: at least 12,000 feet AGL
Clouds: few clouds at 10000 feet AGL
Weather: HZ  (haze)

METAR text: VABB 122030Z 08004KT 2500 HZ FEW100 26/20 Q1011 NOSIG
Conditions at: VABB (BOMBAY/SANTACRUZ, IN) observed 2030 UTC 12 December 2019
Temperature: 26.0°C (79°F)
Dewpoint: 20.0°C (68°F) [RH = 70%]
Pressure (altimeter): 29.85 inches Hg (1011.0 mb)
Winds: from the E (80 degrees) at 5 MPH (4 knots; 2.1 m/s)
Visibility: 1.55 miles (2.49 km)
Ceiling: at least 12,000 feet AGL
Clouds: few clouds at 10000 feet AGL
Weather: HZ  (haze)

METAR text: VABB 122000Z 05003KT 2500 HZ FEW100 26/20 Q1011 NOSIG
Conditions at: VABB (BOMBAY/SANTACRUZ, IN) observed 2000 UTC 12 December 2019
Temperature: 26.0°C (79°F)
Dewpoint: 20.0°C (68°F) [RH = 70%]
Pressure (altimeter): 29.85 inches Hg (1011.0 mb)
Winds: from the NE (50 degrees) at 3 MPH (3 knots; 1.5 m/s)
Visibility: 1.55 miles (2.49 km)
Ceiling: at least 12,000 feet AGL
Clouds: few clouds at 10000 feet AGL
Weather: HZ  (haze)

METAR text: VABB 121930Z 04003KT 2500 HZ FEW100 26/20 Q1011 NOSIG
Conditions at: VABB (BOMBAY/SANTACRUZ, IN) observed 1930 UTC 12 December 2019
Temperature: 26.0°C (79°F)
Dewpoint: 20.0°C (68°F) [RH = 70%]
Pressure (altimeter): 29.85 inches Hg (1011.0 mb)
Winds: from the NE (40 degrees) at 3 MPH (3 knots; 1.5 m/s)
Visibility: 1.55 miles (2.49 km)
Ceiling: at least 12,000 feet AGL
Clouds: few clouds at 10000 feet AGL
Weather: HZ  (haze)

METAR text: VABB 121900Z 02006KT 2500 HZ FEW100 27/20 Q1011 NOSIG
Conditions at: VABB (BOMBAY/SANTACRUZ, IN) observed 1900 UTC 12 December 2019
Temperature: 27.0°C (81°F)
Dewpoint: 20.0°C (68°F) [RH = 66%]
Pressure (altimeter): 29.85 inches Hg (1011.0 mb)
Winds: from the NNE (20 degrees) at 7 MPH (6 knots; 3.1 m/s)
Visibility: 1.55 miles (2.49 km)
Ceiling: at least 12,000 feet AGL
Clouds: few clouds at 10000 feet AGL
Weather: HZ  (haze)

METAR text: VABB 121830Z 02005KT 2500 HZ FEW100 26/20 Q1012 NOSIG
Conditions at: VABB (BOMBAY/SANTACRUZ, IN) observed 1830 UTC 12 December 2019
Temperature: 26.0°C (79°F)
Dewpoint: 20.0°C (68°F) [RH = 70%]
Pressure (altimeter): 29.88 inches Hg (1012.0 mb)
Winds: from the NNE (20 degrees) at 6 MPH (5 knots; 2.6 m/s)
Visibility: 1.55 miles (2.49 km)
Ceiling: at least 12,000 feet AGL
Clouds: few clouds at 10000 feet AGL
Weather: HZ  (haze)

METAR text: VABB 121800Z 03004KT 2500 HZ FEW100 27/21 Q1012 NOSIG
Conditions at: VABB (BOMBAY/SANTACRUZ, IN) observed 1800 UTC 12 December 2019
Temperature: 27.0°C (81°F)
Dewpoint: 21.0°C (70°F) [RH = 70%]
Pressure (altimeter): 29.88 inches Hg (1012.0 mb)
Winds: from the NNE (30 degrees) at 5 MPH (4 knots; 2.1 m/s)
Visibility: 1.55 miles (2.49 km)
Ceiling: at least 12,000 feet AGL
Clouds: few clouds at 10000 feet AGL
Weather: HZ  (haze)

METAR text: VABB 121730Z 30004KT 2500 HZ FEW100 27/21 Q1012 NOSIG
Conditions at: VABB (BOMBAY/SANTACRUZ, IN) observed 1730 UTC 12 December 2019
Temperature: 27.0°C (81°F)
Dewpoint: 21.0°C (70°F) [RH = 70%]
Pressure (altimeter): 29.88 inches Hg (1012.0 mb)
Winds: from the WNW (300 degrees) at 5 MPH (4 knots; 2.1 m/s)
Visibility: 1.55 miles (2.49 km)
Ceiling: at least 12,000 feet AGL
Clouds: few clouds at 10000 feet AGL
Weather: HZ  (haze)

METAR text: VABB 121700Z VRB03KT 2500 HZ FEW100 27/21 Q1012 NOSIG
Conditions at: VABB (BOMBAY/SANTACRUZ, IN) observed 1700 UTC 12 December 2019
Temperature: 27.0°C (81°F)
Dewpoint: 21.0°C (70°F) [RH = 70%]
Pressure (altimeter): 29.88 inches Hg (1012.0 mb)
Winds: variable direction winds at 3 MPH (3 knots; 1.5 m/s)
Visibility: 1.55 miles (2.49 km)
Ceiling: at least 12,000 feet AGL
Clouds: few clouds at 10000 feet AGL
Weather: HZ  (haze)

METAR text: VABB 121630Z 31003KT 2500 HZ FEW100 27/21 Q1012 NOSIG
Conditions at: VABB (BOMBAY/SANTACRUZ, IN) observed 1630 UTC 12 December 2019
Temperature: 27.0°C (81°F)
Dewpoint: 21.0°C (70°F) [RH = 70%]
Pressure (altimeter): 29.88 inches Hg (1012.0 mb)
Winds: from the NW (310 degrees) at 3 MPH (3 knots; 1.5 m/s)
Visibility: 1.55 miles (2.49 km)
Ceiling: at least 12,000 feet AGL
Clouds: few clouds at 10000 feet AGL
Weather: HZ  (haze)

METAR text: VABB 121600Z 35004KT 2500 HZ FEW100 27/20 Q1011 NOSIG
Conditions at: VABB (BOMBAY/SANTACRUZ, IN) observed 1600 UTC 12 December 2019
Temperature: 27.0°C (81°F)
Dewpoint: 20.0°C (68°F) [RH = 66%]
Pressure (altimeter): 29.85 inches Hg (1011.0 mb)
Winds: from the N (350 degrees) at 5 MPH (4 knots; 2.1 m/s)
Visibility: 1.55 miles (2.49 km)
Ceiling: at least 12,000 feet AGL
Clouds: few clouds at 10000 feet AGL
Weather: HZ  (haze)

METAR text: VABB 121530Z 33005KT 2500 HZ FEW100 27/20 Q1011 NOSIG
Conditions at: VABB (BOMBAY/SANTACRUZ, IN) observed 1530 UTC 12 December 2019
Temperature: 27.0°C (81°F)
Dewpoint: 20.0°C (68°F) [RH = 66%]
Pressure (altimeter): 29.85 inches Hg (1011.0 mb)
Winds: from the NNW (330 degrees) at 6 MPH (5 knots; 2.6 m/s)
Visibility: 1.55 miles (2.49 km)
Ceiling: at least 12,000 feet AGL
Clouds: few clouds at 10000 feet AGL
Weather: HZ  (haze)

METAR text: VABB 121500Z 30004KT 2500 HZ FEW100 27/20 Q1011 NOSIG
Conditions at: VABB (BOMBAY/SANTACRUZ, IN) observed 1500 UTC 12 December 2019
Temperature: 27.0°C (81°F)
Dewpoint: 20.0°C (68°F) [RH = 66%]
Pressure (altimeter): 29.85 inches Hg (1011.0 mb)
Winds: from the WNW (300 degrees) at 5 MPH (4 knots; 2.1 m/s)
Visibility: 1.55 miles (2.49 km)
Ceiling: at least 12,000 feet AGL
Clouds: few clouds at 10000 feet AGL
Weather: HZ  (haze)

METAR text: VABB 121430Z 32006KT 2500 HZ FEW100 28/20 Q1011 NOSIG
Conditions at: VABB (BOMBAY/SANTACRUZ, IN) observed 1430 UTC 12 December 2019
Temperature: 28.0°C (82°F)
Dewpoint: 20.0°C (68°F) [RH = 62%]
Pressure (altimeter): 29.85 inches Hg (1011.0 mb)
Winds: from the NW (320 degrees) at 7 MPH (6 knots; 3.1 m/s)
Visibility: 1.55 miles (2.49 km)
Ceiling: at least 12,000 feet AGL
Clouds: few clouds at 10000 feet AGL
Weather: HZ  (haze)

METAR text: VABB 121400Z 30004KT 2500 HZ FEW100 27/20 Q1010 NOSIG
Conditions at: VABB (BOMBAY/SANTACRUZ, IN) observed 1400 UTC 12 December 2019
Temperature: 27.0°C (81°F)
Dewpoint: 20.0°C (68°F) [RH = 66%]
Pressure (altimeter): 29.82 inches Hg (1010.0 mb)
Winds: from the WNW (300 degrees) at 5 MPH (4 knots; 2.1 m/s)
Visibility: 1.55 miles (2.49 km)
Ceiling: at least 12,000 feet AGL
Clouds: few clouds at 10000 feet AGL
Weather: HZ  (haze)

METAR text: VABB 121330Z 30005KT 2500 HZ FEW100 27/19 Q1010 NOSIG
Conditions at: VABB (BOMBAY/SANTACRUZ, IN) observed 1330 UTC 12 December 2019
Temperature: 27.0°C (81°F)
Dewpoint: 19.0°C (66°F) [RH = 62%]
Pressure (altimeter): 29.82 inches Hg (1010.0 mb)
Winds: from the WNW (300 degrees) at 6 MPH (5 knots; 2.6 m/s)
Visibility: 1.55 miles (2.49 km)
Ceiling: at least 12,000 feet AGL
Clouds: few clouds at 10000 feet AGL
Weather: HZ  (haze)

METAR text: VABB 121300Z 30006KT 2500 HZ FEW100 27/19 Q1010 NOSIG
Conditions at: VABB (BOMBAY/SANTACRUZ, IN) observed 1300 UTC 12 December 2019
Temperature: 27.0°C (81°F)
Dewpoint: 19.0°C (66°F) [RH = 62%]
Pressure (altimeter): 29.82 inches Hg (1010.0 mb)
Winds: from the WNW (300 degrees) at 7 MPH (6 knots; 3.1 m/s)
Visibility: 1.55 miles (2.49 km)
Ceiling: at least 12,000 feet AGL
Clouds: few clouds at 10000 feet AGL
Weather: HZ  (haze)

METAR text: VABB 121230Z 31005KT 2500 FU FEW100 27/19 Q1009 NOSIG
Conditions at: VABB (BOMBAY/SANTACRUZ, IN) observed 1230 UTC 12 December 2019
Temperature: 27.0°C (81°F)
Dewpoint: 19.0°C (66°F) [RH = 62%]
Pressure (altimeter): 29.79 inches Hg (1009.0 mb)
Winds: from the NW (310 degrees) at 6 MPH (5 knots; 2.6 m/s)
Visibility: 1.55 miles (2.49 km)
Ceiling: at least 12,000 feet AGL
Clouds: few clouds at 10000 feet AGL
Weather: FU  (smoke)

METAR text: VABB 121200Z 31007KT 3000 FU NSC 28/20 Q1009 NOSIG
Conditions at: VABB (BOMBAY/SANTACRUZ, IN) observed 1200 UTC 12 December 2019
Temperature: 28.0°C (82°F)
Dewpoint: 20.0°C (68°F) [RH = 62%]
Pressure (altimeter): 29.79 inches Hg (1009.0 mb)
Winds: from the NW (310 degrees) at 8 MPH (7 knots; 3.6 m/s)
Visibility: 1.86 miles (2.99 km)
Ceiling: at least 12,000 feet AGL
Clouds: sky clear below 12,000 feet AGL
Weather: FU  (smoke)

METAR text: VABB 121130Z 33007KT 3000 FU NSC 29/19 Q1009 NOSIG
Conditions at: VABB (BOMBAY/SANTACRUZ, IN) observed 1130 UTC 12 December 2019
Temperature: 29.0°C (84°F)
Dewpoint: 19.0°C (66°F) [RH = 55%]
Pressure (altimeter): 29.79 inches Hg (1009.0 mb)
Winds: from the NNW (330 degrees) at 8 MPH (7 knots; 3.6 m/s)
Visibility: 1.86 miles (2.99 km)
Ceiling: at least 12,000 feet AGL
Clouds: sky clear below 12,000 feet AGL
Weather: FU  (smoke)

METAR text: VABB 121100Z 30008KT 3000 FU NSC 29/19 Q1009 NOSIG
Conditions at: VABB (BOMBAY/SANTACRUZ, IN) observed 1100 UTC 12 December 2019
Temperature: 29.0°C (84°F)
Dewpoint: 19.0°C (66°F) [RH = 55%]
Pressure (altimeter): 29.79 inches Hg (1009.0 mb)
Winds: from the WNW (300 degrees) at 9 MPH (8 knots; 4.1 m/s)
Visibility: 1.86 miles (2.99 km)
Ceiling: at least 12,000 feet AGL
Clouds: sky clear below 12,000 feet AGL
Weather: FU  (smoke)

METAR text: VABB 121030Z 29010KT 3000 FU NSC 29/19 Q1009 NOSIG
Conditions at: VABB (BOMBAY/SANTACRUZ, IN) observed 1030 UTC 12 December 2019
Temperature: 29.0°C (84°F)
Dewpoint: 19.0°C (66°F) [RH = 55%]
Pressure (altimeter): 29.79 inches Hg (1009.0 mb)
Winds: from the WNW (290 degrees) at 12 MPH (10 knots; 5.1 m/s)
Visibility: 1.86 miles (2.99 km)
Ceiling: at least 12,000 feet AGL
Clouds: sky clear below 12,000 feet AGL
Weather: FU  (smoke)

METAR text: VABB 121000Z 28008KT 3000 FU NSC 29/19 Q1009 NOSIG
Conditions at: VABB (BOMBAY/SANTACRUZ, IN) observed 1000 UTC 12 December 2019
Temperature: 29.0°C (84°F)
Dewpoint: 19.0°C (66°F) [RH = 55%]
Pressure (altimeter): 29.79 inches Hg (1009.0 mb)
Winds: from the W (280 degrees) at 9 MPH (8 knots; 4.1 m/s)
Visibility: 1.86 miles (2.99 km)
Ceiling: at least 12,000 feet AGL
Clouds: sky clear below 12,000 feet AGL
Weather: FU  (smoke)

METAR text: VABB 120930Z 28010KT 3000 FU NSC 29/18 Q1009 NOSIG
Conditions at: VABB (BOMBAY/SANTACRUZ, IN) observed 0930 UTC 12 December 2019
Temperature: 29.0°C (84°F)
Dewpoint: 18.0°C (64°F) [RH = 52%]
Pressure (altimeter): 29.79 inches Hg (1009.0 mb)
Winds: from the W (280 degrees) at 12 MPH (10 knots; 5.1 m/s)
Visibility: 1.86 miles (2.99 km)
Ceiling: at least 12,000 feet AGL
Clouds: sky clear below 12,000 feet AGL
Weather: FU  (smoke)

METAR text: VABB 120900Z 30008KT 2500 FU NSC 29/18 Q1009 BECMG 3000 FU
Conditions at: VABB (BOMBAY/SANTACRUZ, IN) observed 0900 UTC 12 December 2019
Temperature: 29.0°C (84°F)
Dewpoint: 18.0°C (64°F) [RH = 52%]
Pressure (altimeter): 29.79 inches Hg (1009.0 mb)
Winds: from the WNW (300 degrees) at 9 MPH (8 knots; 4.1 m/s)
Visibility: 1.55 miles (2.49 km)
Ceiling: at least 12,000 feet AGL
Clouds: sky clear below 12,000 feet AGL
Weather: FU  (smoke)

METAR text: VABB 120830Z 27009KT 2500 FU NSC 29/18 Q1010 NOSIG
Conditions at: VABB (BOMBAY/SANTACRUZ, IN) observed 0830 UTC 12 December 2019
Temperature: 29.0°C (84°F)
Dewpoint: 18.0°C (64°F) [RH = 52%]
Pressure (altimeter): 29.82 inches Hg (1010.0 mb)
Winds: from the W (270 degrees) at 10 MPH (9 knots; 4.6 m/s)
Visibility: 1.55 miles (2.49 km)
Ceiling: at least 12,000 feet AGL
Clouds: sky clear below 12,000 feet AGL
Weather: FU  (smoke)

METAR text: VABB 120800Z 27009KT 2500 FU NSC 30/18 Q1010 BECMG 3000 FU
Conditions at: VABB (BOMBAY/SANTACRUZ, IN) observed 0800 UTC 12 December 2019
Temperature: 30.0°C (86°F)
Dewpoint: 18.0°C (64°F) [RH = 49%]
Pressure (altimeter): 29.82 inches Hg (1010.0 mb)
Winds: from the W (270 degrees) at 10 MPH (9 knots; 4.6 m/s)
Visibility: 1.55 miles (2.49 km)
Ceiling: at least 12,000 feet AGL
Clouds: sky clear below 12,000 feet AGL
Weather: FU  (smoke)

METAR text: VABB 120730Z 29008KT 2500 FU NSC 29/18 Q1011 NOSIG
Conditions at: VABB (BOMBAY/SANTACRUZ, IN) observed 0730 UTC 12 December 2019
Temperature: 29.0°C (84°F)
Dewpoint: 18.0°C (64°F) [RH = 52%]
Pressure (altimeter): 29.85 inches Hg (1011.0 mb)
Winds: from the WNW (290 degrees) at 9 MPH (8 knots; 4.1 m/s)
Visibility: 1.55 miles (2.49 km)
Ceiling: at least 12,000 feet AGL
Clouds: sky clear below 12,000 feet AGL
Weather: FU  (smoke)

METAR text: VABB 120700Z 29007KT 2500 FU NSC 30/19 Q1011 NOSIG
Conditions at: VABB (BOMBAY/SANTACRUZ, IN) observed 0700 UTC 12 December 2019
Temperature: 30.0°C (86°F)
Dewpoint: 19.0°C (66°F) [RH = 52%]
Pressure (altimeter): 29.85 inches Hg (1011.0 mb)
Winds: from the WNW (290 degrees) at 8 MPH (7 knots; 3.6 m/s)
Visibility: 1.55 miles (2.49 km)
Ceiling: at least 12,000 feet AGL
Clouds: sky clear below 12,000 feet AGL
Weather: FU  (smoke)

METAR text: VABB 120630Z 30006KT 2500 FU NSC 29/19 Q1011 NOSIG
Conditions at: VABB (BOMBAY/SANTACRUZ, IN) observed 0630 UTC 12 December 2019
Temperature: 29.0°C (84°F)
Dewpoint: 19.0°C (66°F) [RH = 55%]
Pressure (altimeter): 29.85 inches Hg (1011.0 mb)
Winds: from the WNW (300 degrees) at 7 MPH (6 knots; 3.1 m/s)
Visibility: 1.55 miles (2.49 km)
Ceiling: at least 12,000 feet AGL
Clouds: sky clear below 12,000 feet AGL
Weather: FU  (smoke)

METAR text: VABB 120600Z 24008KT 2200 FU NSC 30/19 Q1012 NOSIG
Conditions at: VABB (BOMBAY/SANTACRUZ, IN) observed 0600 UTC 12 December 2019
Temperature: 30.0°C (86°F)
Dewpoint: 19.0°C (66°F) [RH = 52%]
Pressure (altimeter): 29.88 inches Hg (1012.0 mb)
Winds: from the WSW (240 degrees) at 9 MPH (8 knots; 4.1 m/s)
Visibility: 1.37 miles (2.20 km)
Ceiling: at least 12,000 feet AGL
Clouds: sky clear below 12,000 feet AGL
Weather: FU  (smoke)

METAR text: VABB 120530Z 01004KT 2200 FU NSC 29/19 Q1012 NOSIG
Conditions at: VABB (BOMBAY/SANTACRUZ, IN) observed 0530 UTC 12 December 2019
Temperature: 29.0°C (84°F)
Dewpoint: 19.0°C (66°F) [RH = 55%]
Pressure (altimeter): 29.88 inches Hg (1012.0 mb)
Winds: from the N (10 degrees) at 5 MPH (4 knots; 2.1 m/s)
Visibility: 1.37 miles (2.20 km)
Ceiling: at least 12,000 feet AGL
Clouds: sky clear below 12,000 feet AGL
Weather: FU  (smoke)

METAR text: VABB 120500Z 00000KT 2100 HZ NSC 28/19 Q1012 NOSIG
Conditions at: VABB (BOMBAY/SANTACRUZ, IN) observed 0500 UTC 12 December 2019
Temperature: 28.0°C (82°F)
Dewpoint: 19.0°C (66°F) [RH = 58%]
Pressure (altimeter): 29.88 inches Hg (1012.0 mb)
Winds: calm
Visibility: 1.30 miles (2.09 km)
Ceiling: at least 12,000 feet AGL
Clouds: sky clear below 12,000 feet AGL
Weather: HZ  (haze)

METAR text: VABB 120430Z 01003KT 2100 HZ NSC 28/19 Q1013 NOSIG
Conditions at: VABB (BOMBAY/SANTACRUZ, IN) observed 0430 UTC 12 December 2019
Temperature: 28.0°C (82°F)
Dewpoint: 19.0°C (66°F) [RH = 58%]
Pressure (altimeter): 29.91 inches Hg (1013.0 mb)
Winds: from the N (10 degrees) at 3 MPH (3 knots; 1.5 m/s)
Visibility: 1.30 miles (2.09 km)
Ceiling: at least 12,000 feet AGL
Clouds: sky clear below 12,000 feet AGL
Weather: HZ  (haze)

METAR text: VABB 120400Z 03004KT 1700 HZ NSC 27/20 Q1013 NOSIG
Conditions at: VABB (BOMBAY/SANTACRUZ, IN) observed 0400 UTC 12 December 2019
Temperature: 27.0°C (81°F)
Dewpoint: 20.0°C (68°F) [RH = 66%]
Pressure (altimeter): 29.91 inches Hg (1013.0 mb)
Winds: from the NNE (30 degrees) at 5 MPH (4 knots; 2.1 m/s)
Visibility: 1.06 miles (1.71 km)
Ceiling: at least 12,000 feet AGL
Clouds: sky clear below 12,000 feet AGL
Weather: HZ  (haze)

METAR text: VABB 120330Z 00000KT 1700 HZ NSC 28/20 Q1012 NOSIG
Conditions at: VABB (BOMBAY/SANTACRUZ, IN) observed 0330 UTC 12 December 2019
Temperature: 28.0°C (82°F)
Dewpoint: 20.0°C (68°F) [RH = 62%]
Pressure (altimeter): 29.88 inches Hg (1012.0 mb)
Winds: calm
Visibility: 1.06 miles (1.71 km)
Ceiling: at least 12,000 feet AGL
Clouds: sky clear below 12,000 feet AGL
Weather: HZ  (haze)

METAR text: VABB 120300Z 03003KT 2000 HZ NSC 27/19 Q1012 NOSIG
Conditions at: VABB (BOMBAY/SANTACRUZ, IN) observed 0300 UTC 12 December 2019
Temperature: 27.0°C (81°F)
Dewpoint: 19.0°C (66°F) [RH = 62%]
Pressure (altimeter): 29.88 inches Hg (1012.0 mb)
Winds: from the NNE (30 degrees) at 3 MPH (3 knots; 1.5 m/s)
Visibility: 1.24 miles (2.00 km)
Ceiling: at least 12,000 feet AGL
Clouds: sky clear below 12,000 feet AGL
Weather: HZ  (haze)

METAR text: VABB 120230Z 05003KT 2200 HZ NSC 26/18 Q1011 NOSIG
Conditions at: VABB (BOMBAY/SANTACRUZ, IN) observed 0230 UTC 12 December 2019
Temperature: 26.0°C (79°F)
Dewpoint: 18.0°C (64°F) [RH = 61%]
Pressure (altimeter): 29.85 inches Hg (1011.0 mb)
Winds: from the NE (50 degrees) at 3 MPH (3 knots; 1.5 m/s)
Visibility: 1.37 miles (2.20 km)
Ceiling: at least 12,000 feet AGL
Clouds: sky clear below 12,000 feet AGL
Weather: HZ  (haze)

METAR text: VABB 120200Z 00000KT 2200 HZ NSC 25/17 Q1011 NOSIG
Conditions at: VABB (BOMBAY/SANTACRUZ, IN) observed 0200 UTC 12 December 2019
Temperature: 25.0°C (77°F)
Dewpoint: 17.0°C (63°F) [RH = 61%]
Pressure (altimeter): 29.85 inches Hg (1011.0 mb)
Winds: calm
Visibility: 1.37 miles (2.20 km)
Ceiling: at least 12,000 feet AGL
Clouds: sky clear below 12,000 feet AGL
Weather: HZ  (haze)

Forecast for: VABB (BOMBAY/SANTACRUZ, IN)
Text: TAF VABB 131100Z 1312/1321 32005KT 4000 FU HZ FEW020 SCT100
Forecast period: 1200 to 1800 UTC 13 December 2019
Forecast type: FROM: standard forecast or significant change
Winds: from the NW (320 degrees) at 6 MPH (5 knots; 2.6 m/s)
Visibility: 2.49 miles (4.01 km)
Ceiling: at least 12,000 feet AGL
Clouds: few clouds at 2000 feet AGL
scattered clouds at 10000 feet AGL
Weather: FU HZ  (smoke, haze)
Text: BECMG 1318/1320 05004KT 3000 HZ FEW100
Forecast period: 1800 to 2100 UTC 13 December 2019
Forecast type: BECOMING: Conditions expected to become as follows by 2000 UTC 13 December 2019
Winds: from the NE (50 degrees) at 5 MPH (4 knots; 2.1 m/s)
Visibility: 1.86 miles (2.99 km)
Ceiling: at least 12,000 feet AGL
Clouds: few clouds at 10000 feet AGL
Weather: HZ  (haze)